Time;durP1;ratioP1;P1;durP2;ratioP2;P2;SDS_P1;SDS_P2;PMS_P1;PMS_P2;Temp;Humidity;BMP_temperature;BMP_pressure;BME280_temperature;BME280_humidity;BME280_pressure;Samples;Min_cycle;Max_cycle;Signal;HPM_P1;HPM_P2
2023/08/06 00:00:22;;;;;;;0.25;0.25;;;;;;;;;;6189717;23;20019;-89
2023/08/06 00:02:48;;;;;;;0.15;0.15;;;;;;;;;;6189096;23;20018;-88
2023/08/06 00:05:17;;;;;;;0.10;0.10;;;;;;;;;;6189222;23;20023;-88
2023/08/06 00:07:44;;;;;;;0.30;0.30;;;;;;;;;;6190189;23;20012;-89
2023/08/06 00:10:10;;;;;;;0.20;0.20;;;;;;;;;;6189432;23;20016;-88
2023/08/06 00:12:36;;;;;;;0.20;0.20;;;;;;;;;;6188747;23;20012;-86
2023/08/06 00:15:02;;;;;;;0.30;0.30;;;;;;;;;;6189017;23;20048;-88
2023/08/06 00:17:28;;;;;;;0.20;0.20;;;;;;;;;;6189522;23;20023;-91
2023/08/06 00:19:54;;;;;;;0.20;0.20;;;;;;;;;;6189741;23;20103;-91
2023/08/06 00:22:20;;;;;;;0.20;0.20;;;;;;;;;;6190538;23;20055;-90
2023/08/06 00:24:46;;;;;;;0.00;0.00;;;;;;;;;;6191660;23;20380;-90
2023/08/06 00:27:12;;;;;;;0.10;0.10;;;;;;;;;;6191123;23;20020;-90
2023/08/06 00:29:38;;;;;;;0.10;0.10;;;;;;;;;;6190797;23;20016;-90
2023/08/06 00:32:04;;;;;;;0.10;0.10;;;;;;;;;;6190665;23;20016;-89
2023/08/06 00:34:30;;;;;;;0.28;0.28;;;;;;;;;;6216325;23;20472;-92
2023/08/06 00:36:56;;;;;;;0.20;0.20;;;;;;;;;;6216085;23;20044;-90
2023/08/06 00:39:22;;;;;;;0.10;0.10;;;;;;;;;;6191374;23;20027;-89
2023/08/06 00:41:48;;;;;;;0.20;0.20;;;;;;;;;;6190334;23;20351;-90
2023/08/06 00:44:14;;;;;;;0.10;0.10;;;;;;;;;;6191165;23;20028;-89
2023/08/06 00:46:40;;;;;;;0.15;0.15;;;;;;;;;;6191599;23;20049;-90
2023/08/06 00:49:07;;;;;;;0.10;0.10;;;;;;;;;;6190382;23;20043;-88
2023/08/06 00:51:34;;;;;;;0.30;0.30;;;;;;;;;;6190303;22;20041;-89
2023/08/06 00:54:00;;;;;;;0.10;0.10;;;;;;;;;;6190479;23;20388;-89
2023/08/06 00:56:27;;;;;;;0.10;0.10;;;;;;;;;;6190566;23;20012;-88
2023/08/06 00:58:53;;;;;;;0.20;0.20;;;;;;;;;;6190562;23;20023;-89
2023/08/06 01:01:19;;;;;;;0.20;0.20;;;;;;;;;;6189939;23;20023;-88
2023/08/06 01:03:45;;;;;;;0.10;0.10;;;;;;;;;;6190618;23;20023;-88
2023/08/06 01:06:11;;;;;;;0.30;0.30;;;;;;;;;;6190634;23;20020;-87
2023/08/06 01:08:45;;;;;;;0.10;0.10;;;;;;;;;;6190255;23;20024;-87
2023/08/06 01:11:11;;;;;;;0.10;0.10;;;;;;;;;;6189954;23;20031;-88
2023/08/06 01:13:49;;;;;;;0.10;0.10;;;;;;;;;;6190032;23;20016;-90
2023/08/06 01:16:19;;;;;;;0.20;0.20;;;;;;;;;;6190466;23;20016;-90
2023/08/06 01:18:51;;;;;;;0.20;0.20;;;;;;;;;;6190886;23;20363;-90
2023/08/06 01:21:18;;;;;;;0.20;0.20;;;;;;;;;;6190377;23;20016;-88
2023/08/06 01:23:44;;;;;;;0.10;0.10;;;;;;;;;;6190594;23;20020;-89
2023/08/06 01:26:29;;;;;;;0.20;0.20;;;;;;;;;;6191313;23;20447;-90
2023/08/06 01:28:54;;;;;;;0.20;0.20;;;;;;;;;;6191028;23;20094;-91
2023/08/06 01:31:35;;;;;;;0.10;0.10;;;;;;;;;;6191844;23;20466;-90
2023/08/06 01:34:03;;;;;;;0.20;0.20;;;;;;;;;;6191167;23;20015;-90
2023/08/06 01:36:29;;;;;;;0.10;0.10;;;;;;;;;;6190748;23;20023;-91
2023/08/06 01:38:55;;;;;;;0.00;0.00;;;;;;;;;;6191895;23;20042;-91
2023/08/06 01:41:21;;;;;;;0.20;0.20;;;;;;;;;;6190578;23;20024;-90
2023/08/06 01:43:47;;;;;;;0.03;0.03;;;;;;;;;;6191173;23;20016;-90
2023/08/06 01:46:13;;;;;;;0.10;0.10;;;;;;;;;;6190833;23;20027;-90
2023/08/06 01:48:58;;;;;;;0.28;0.28;;;;;;;;;;6190428;23;20020;-89
2023/08/06 01:51:24;;;;;;;0.10;0.10;;;;;;;;;;6189781;23;20020;-91
2023/08/06 01:53:50;;;;;;;0.20;0.20;;;;;;;;;;6190217;23;20413;-89
2023/08/06 01:56:16;;;;;;;0.13;0.13;;;;;;;;;;6215325;23;20043;-90
2023/08/06 01:58:42;;;;;;;0.22;0.22;;;;;;;;;;6190630;23;20102;-90
2023/08/06 02:01:08;;;;;;;0.20;0.20;;;;;;;;;;6190758;23;20020;-90
2023/08/06 02:03:34;;;;;;;0.20;0.20;;;;;;;;;;6189918;23;20020;-90
2023/08/06 02:06:00;;;;;;;0.08;0.08;;;;;;;;;;6190364;23;20409;-89
2023/08/06 02:08:27;;;;;;;0.20;0.20;;;;;;;;;;6190103;23;20055;-89
2023/08/06 02:10:53;;;;;;;0.17;0.17;;;;;;;;;;6190307;23;20415;-91
2023/08/06 02:13:19;;;;;;;0.15;0.15;;;;;;;;;;6189907;23;20012;-89
2023/08/06 02:15:49;;;;;;;0.15;0.15;;;;;;;;;;6190239;23;20023;-89
2023/08/06 02:18:15;;;;;;;0.20;0.20;;;;;;;;;;6190147;23;20460;-90
2023/08/06 02:20:41;;;;;;;0.20;0.20;;;;;;;;;;6189988;23;20024;-91
2023/08/06 02:23:08;;;;;;;0.10;0.10;;;;;;;;;;6190207;23;20460;-90
2023/08/06 02:25:34;;;;;;;0.15;0.15;;;;;;;;;;6190883;23;20047;-89
2023/08/06 02:28:00;;;;;;;0.20;0.20;;;;;;;;;;6189868;23;20065;-88
2023/08/06 02:30:26;;;;;;;0.20;0.20;;;;;;;;;;6190326;23;20464;-90
2023/08/06 02:32:52;;;;;;;0.20;0.20;;;;;;;;;;6189961;23;20019;-91
2023/08/06 02:35:18;;;;;;;0.15;0.15;;;;;;;;;;6190077;23;20012;-90
2023/08/06 02:37:44;;;;;;;0.10;0.10;;;;;;;;;;6189986;23;20008;-90
2023/08/06 02:40:10;;;;;;;0.20;0.20;;;;;;;;;;6190264;23;20016;-89
2023/08/06 02:42:36;;;;;;;0.10;0.10;;;;;;;;;;6189381;23;20026;-91
2023/08/06 02:45:02;;;;;;;0.20;0.20;;;;;;;;;;6189301;23;20020;-90
2023/08/06 02:47:28;;;;;;;0.22;0.22;;;;;;;;;;6190415;23;20050;-88
2023/08/06 02:49:54;;;;;;;0.20;0.20;;;;;;;;;;6188977;23;20016;-90
2023/08/06 02:52:20;;;;;;;0.10;0.10;;;;;;;;;;6188971;23;20018;-89
2023/08/06 02:54:46;;;;;;;0.10;0.10;;;;;;;;;;6214870;23;20012;-89
2023/08/06 02:57:12;;;;;;;0.10;0.10;;;;;;;;;;6190681;23;20008;-92
2023/08/06 02:59:38;;;;;;;0.20;0.20;;;;;;;;;;6190098;23;20496;-90
2023/08/06 03:02:05;;;;;;;0.10;0.10;;;;;;;;;;6189808;23;20028;-90
2023/08/06 03:04:31;;;;;;;0.10;0.10;;;;;;;;;;6190100;23;20023;-90
2023/08/06 03:06:57;;;;;;;0.10;0.10;;;;;;;;;;6190089;23;20020;-89
2023/08/06 03:09:23;;;;;;;0.17;0.17;;;;;;;;;;6215349;23;20020;-89
2023/08/06 03:11:49;;;;;;;0.20;0.20;;;;;;;;;;6214599;23;20099;-88
2023/08/06 03:14:15;;;;;;;0.20;0.20;;;;;;;;;;6189583;23;20016;-89
2023/08/06 03:16:41;;;;;;;0.20;0.20;;;;;;;;;;6189862;23;20404;-88
2023/08/06 03:19:07;;;;;;;0.20;0.20;;;;;;;;;;6189607;23;20069;-88
2023/08/06 03:21:33;;;;;;;0.30;0.30;;;;;;;;;;6189170;23;20443;-89
2023/08/06 03:23:59;;;;;;;0.05;0.05;;;;;;;;;;6189693;23;20020;-87
2023/08/06 03:26:25;;;;;;;0.20;0.20;;;;;;;;;;6189864;23;20026;-89
2023/08/06 03:28:51;;;;;;;0.20;0.20;;;;;;;;;;6189605;23;20466;-90
2023/08/06 03:31:17;;;;;;;0.20;0.20;;;;;;;;;;6189270;23;20012;-88
2023/08/06 03:33:43;;;;;;;0.10;0.10;;;;;;;;;;6189756;23;20077;-89
2023/08/06 03:36:12;;;;;;;0.20;0.20;;;;;;;;;;6190342;23;20465;-88
2023/08/06 03:38:38;;;;;;;0.10;0.10;;;;;;;;;;6189426;23;20074;-89
2023/08/06 03:41:04;;;;;;;0.30;0.30;;;;;;;;;;6189626;23;20020;-89
2023/08/06 03:43:30;;;;;;;0.30;0.30;;;;;;;;;;6189153;23;20382;-86
2023/08/06 03:45:56;;;;;;;0.20;0.20;;;;;;;;;;6189458;23;20388;-89
2023/08/06 03:48:22;;;;;;;0.10;0.10;;;;;;;;;;6189301;23;20020;-88
2023/08/06 03:50:48;;;;;;;0.10;0.10;;;;;;;;;;6189448;23;20638;-89
2023/08/06 03:53:14;;;;;;;0.10;0.10;;;;;;;;;;6214059;23;20019;-90
2023/08/06 03:55:40;;;;;;;0.20;0.20;;;;;;;;;;6189942;23;20462;-89
2023/08/06 03:58:06;;;;;;;0.10;0.10;;;;;;;;;;6217953;23;20054;-90
2023/08/06 04:00:32;;;;;;;0.00;0.00;;;;;;;;;;6193070;23;20073;-88
2023/08/06 04:02:58;;;;;;;0.10;0.10;;;;;;;;;;6191814;23;20095;-88
2023/08/06 04:05:24;;;;;;;0.10;0.10;;;;;;;;;;6217943;23;20020;-90
2023/08/06 04:07:50;;;;;;;0.10;0.10;;;;;;;;;;6217754;23;20016;-90
2023/08/06 04:10:16;;;;;;;0.20;0.20;;;;;;;;;;6192014;23;20395;-89
2023/08/06 04:12:43;;;;;;;0.10;0.10;;;;;;;;;;6191229;23;20042;-88
2023/08/06 04:15:09;;;;;;;0.15;0.15;;;;;;;;;;6191839;23;20447;-87
2023/08/06 04:17:35;;;;;;;0.20;0.20;;;;;;;;;;6216962;23;20076;-88
2023/08/06 04:20:02;;;;;;;0.10;0.10;;;;;;;;;;6191806;23;20016;-88
2023/08/06 04:22:28;;;;;;;0.20;0.20;;;;;;;;;;6191000;22;20020;-88
2023/08/06 04:24:54;;;;;;;0.10;0.10;;;;;;;;;;6191602;23;20027;-89
2023/08/06 04:27:20;;;;;;;0.10;0.10;;;;;;;;;;6191748;23;20016;-89
2023/08/06 04:29:46;;;;;;;0.10;0.10;;;;;;;;;;6191602;23;20016;-89
2023/08/06 04:32:14;;;;;;;0.15;0.15;;;;;;;;;;6191286;23;20336;-89
2023/08/06 04:34:40;;;;;;;0.20;0.20;;;;;;;;;;6191247;23;20013;-88
2023/08/06 04:37:06;;;;;;;0.20;0.20;;;;;;;;;;6166469;23;20060;-88
2023/08/06 04:39:32;;;;;;;0.10;0.10;;;;;;;;;;6191624;23;20016;-88
2023/08/06 04:41:58;;;;;;;0.10;0.10;;;;;;;;;;6191067;23;20115;-89
2023/08/06 04:44:24;;;;;;;0.20;0.20;;;;;;;;;;6191684;23;20016;-90
2023/08/06 04:46:50;;;;;;;0.20;0.20;;;;;;;;;;6191921;23;20020;-90
2023/08/06 04:49:16;;;;;;;0.20;0.20;;;;;;;;;;6191705;23;20016;-89
2023/08/06 04:51:42;;;;;;;0.20;0.20;;;;;;;;;;6191039;23;20113;-89
2023/08/06 04:54:08;;;;;;;0.28;0.28;;;;;;;;;;6216470;23;20020;-89
2023/08/06 04:56:34;;;;;;;0.10;0.10;;;;;;;;;;6191737;23;20031;-89
2023/08/06 04:59:00;;;;;;;0.20;0.20;;;;;;;;;;6191507;23;20347;-87
2023/08/06 05:01:27;;;;;;;0.17;0.17;;;;;;;;;;6190868;23;20022;-89
2023/08/06 05:03:53;;;;;;;0.22;0.22;;;;;;;;;;6191621;23;20023;-89
2023/08/06 05:06:19;;;;;;;0.20;0.20;;;;;;;;;;6191064;23;20455;-90
2023/08/06 05:08:44;;;;;;;0.20;0.20;;;;;;;;;;6214944;23;20016;-89
2023/08/06 05:11:11;;;;;;;0.10;0.10;;;;;;;;;;6189288;23;20100;-89
2023/08/06 05:13:37;;;;;;;0.13;0.13;;;;;;;;;;6189514;23;20012;-89
2023/08/06 05:16:03;;;;;;;0.22;0.22;;;;;;;;;;6189549;23;20047;-89
2023/08/06 05:18:30;;;;;;;0.10;0.10;;;;;;;;;;6214537;23;20068;-88
2023/08/06 05:20:57;;;;;;;0.20;0.20;;;;;;;;;;6214333;23;20047;-89
2023/08/06 05:23:23;;;;;;;0.10;0.10;;;;;;;;;;6189271;23;20016;-90
2023/08/06 05:25:49;;;;;;;0.20;0.20;;;;;;;;;;6189887;23;20020;-90
2023/08/06 05:28:15;;;;;;;0.20;0.20;;;;;;;;;;6214417;23;20020;-90
2023/08/06 05:30:41;;;;;;;0.10;0.10;;;;;;;;;;6189814;23;20019;-90
2023/08/06 05:33:07;;;;;;;0.13;0.13;;;;;;;;;;6189065;23;20298;-89
2023/08/06 05:35:33;;;;;;;0.10;0.10;;;;;;;;;;6189541;23;20034;-91
2023/08/06 05:37:59;;;;;;;0.20;0.20;;;;;;;;;;6189529;23;20121;-89
2023/08/06 05:40:25;;;;;;;0.10;0.10;;;;;;;;;;6189506;23;20414;-89
2023/08/06 05:42:55;;;;;;;0.10;0.10;;;;;;;;;;6189385;23;20452;-90
2023/08/06 05:45:21;;;;;;;0.20;0.20;;;;;;;;;;6189508;23;20022;-89
2023/08/06 05:47:49;;;;;;;0.30;0.30;;;;;;;;;;6214528;23;20411;-90
2023/08/06 05:50:15;;;;;;;0.15;0.15;;;;;;;;;;6189324;23;20396;-89
2023/08/06 05:52:41;;;;;;;0.30;0.30;;;;;;;;;;6188693;23;20022;-89
2023/08/06 05:55:07;;;;;;;0.20;0.20;;;;;;;;;;6189099;23;20091;-89
2023/08/06 05:57:33;;;;;;;0.10;0.10;;;;;;;;;;6189070;23;20012;-89
2023/08/06 05:59:59;;;;;;;0.10;0.10;;;;;;;;;;6189500;23;20022;-89
2023/08/06 06:02:25;;;;;;;0.10;0.10;;;;;;;;;;6164152;22;20024;-89
2023/08/06 06:04:51;;;;;;;0.10;0.10;;;;;;;;;;6188982;23;20016;-89
2023/08/06 06:07:17;;;;;;;0.20;0.20;;;;;;;;;;6189228;23;20062;-89
2023/08/06 06:09:43;;;;;;;0.20;0.20;;;;;;;;;;6189039;23;20434;-89
2023/08/06 06:12:09;;;;;;;0.10;0.10;;;;;;;;;;6188838;23;20016;-88
2023/08/06 06:14:35;;;;;;;0.10;0.10;;;;;;;;;;6189582;23;20016;-89
2023/08/06 06:17:01;;;;;;;0.13;0.13;;;;;;;;;;6189428;23;20042;-90
2023/08/06 06:19:27;;;;;;;0.10;0.10;;;;;;;;;;6189439;23;20027;-90
2023/08/06 06:21:53;;;;;;;0.20;0.20;;;;;;;;;;6188921;23;20016;-90
2023/08/06 06:24:21;;;;;;;0.00;0.00;;;;;;;;;;6214287;23;20050;-88
2023/08/06 06:26:47;;;;;;;0.28;0.28;;;;;;;;;;6189236;23;20020;-89
2023/08/06 06:29:13;;;;;;;0.10;0.10;;;;;;;;;;6189356;23;20016;-90
2023/08/06 06:31:39;;;;;;;0.20;0.20;;;;;;;;;;6189345;23;20496;-88
2023/08/06 06:34:05;;;;;;;0.10;0.10;;;;;;;;;;6214476;23;20027;-89
2023/08/06 06:36:31;;;;;;;0.10;0.10;;;;;;;;;;6189126;23;20012;-89
2023/08/06 06:38:57;;;;;;;0.20;0.20;;;;;;;;;;6189311;23;20016;-89
2023/08/06 06:41:23;;;;;;;0.20;0.20;;;;;;;;;;6188814;23;20072;-89
2023/08/06 06:43:49;;;;;;;0.20;0.20;;;;;;;;;;6189472;23;20474;-89
2023/08/06 06:46:15;;;;;;;0.20;0.20;;;;;;;;;;6189345;23;20024;-89
2023/08/06 06:48:41;;;;;;;0.20;0.20;;;;;;;;;;6189223;23;20024;-89
2023/08/06 06:51:07;;;;;;;0.10;0.10;;;;;;;;;;6189115;23;20013;-89
2023/08/06 06:53:33;;;;;;;0.10;0.10;;;;;;;;;;6188872;23;20091;-87
2023/08/06 06:56:04;;;;;;;0.10;0.10;;;;;;;;;;6189153;23;20090;-89
2023/08/06 06:58:30;;;;;;;0.13;0.13;;;;;;;;;;6189151;23;20493;-88
2023/08/06 07:00:56;;;;;;;0.20;0.20;;;;;;;;;;6188754;23;20016;-88
2023/08/06 07:03:22;;;;;;;0.20;0.20;;;;;;;;;;6188484;23;20125;-87
2023/08/06 07:05:48;;;;;;;0.10;0.10;;;;;;;;;;6213796;23;20346;-90
2023/08/06 07:08:14;;;;;;;0.20;0.20;;;;;;;;;;6188910;23;20052;-89
2023/08/06 07:10:44;;;;;;;0.10;0.10;;;;;;;;;;6188921;23;20347;-88
2023/08/06 07:13:10;;;;;;;0.10;0.10;;;;;;;;;;6188551;23;20081;-88
2023/08/06 07:15:36;;;;;;;0.20;0.20;;;;;;;;;;6188828;23;20380;-88
2023/08/06 07:18:02;;;;;;;0.20;0.20;;;;;;;;;;6214023;23;20044;-88
2023/08/06 07:20:32;;;;;;;0.10;0.10;;;;;;;;;;6188856;23;20057;-88
2023/08/06 07:22:59;;;;;;;0.20;0.20;;;;;;;;;;6188665;22;20046;-88
2023/08/06 07:25:25;;;;;;;0.20;0.20;;;;;;;;;;6188923;23;20024;-88
2023/08/06 07:27:51;;;;;;;0.20;0.20;;;;;;;;;;6189032;23;20069;-88
2023/08/06 07:30:17;;;;;;;0.10;0.10;;;;;;;;;;6188800;23;20016;-89
2023/08/06 07:32:43;;;;;;;0.20;0.20;;;;;;;;;;6188776;23;20016;-89
2023/08/06 07:35:12;;;;;;;0.03;0.03;;;;;;;;;;6189031;23;20012;-89
2023/08/06 07:37:38;;;;;;;0.17;0.17;;;;;;;;;;6188558;23;20383;-89
2023/08/06 07:40:05;;;;;;;0.10;0.10;;;;;;;;;;6188903;23;20020;-90
2023/08/06 07:42:31;;;;;;;0.30;0.30;;;;;;;;;;6188445;23;20016;-90
2023/08/06 07:44:59;;;;;;;0.10;0.10;;;;;;;;;;6188897;23;20472;-89
2023/08/06 07:47:25;;;;;;;0.00;0.00;;;;;;;;;;6188591;23;20024;-89
2023/08/06 07:49:51;;;;;;;0.10;0.10;;;;;;;;;;6214192;23;20488;-89
2023/08/06 07:52:17;;;;;;;0.10;0.10;;;;;;;;;;6188737;23;20012;-90
2023/08/06 07:54:43;;;;;;;0.10;0.10;;;;;;;;;;6189373;23;20043;-88
2023/08/06 07:57:10;;;;;;;0.10;0.10;;;;;;;;;;6189203;23;20049;-88
2023/08/06 07:59:36;;;;;;;0.20;0.20;;;;;;;;;;6189381;23;20031;-90
2023/08/06 08:02:02;;;;;;;0.10;0.10;;;;;;;;;;6188452;23;20023;-91
2023/08/06 08:04:28;;;;;;;0.10;0.10;;;;;;;;;;6188074;23;20450;-90
2023/08/06 08:06:54;;;;;;;0.10;0.10;;;;;;;;;;6188741;23;20088;-91
2023/08/06 08:09:20;;;;;;;0.15;0.15;;;;;;;;;;6188488;23;20051;-89
2023/08/06 08:11:47;;;;;;;0.30;0.30;;;;;;;;;;6187969;23;20031;-88
2023/08/06 08:14:21;;;;;;;0.10;0.10;;;;;;;;;;6213155;23;20116;-89
2023/08/06 08:16:47;;;;;;;0.30;0.30;;;;;;;;;;6188298;23;20023;-89
2023/08/06 08:19:13;;;;;;;0.10;0.10;;;;;;;;;;6213637;23;20016;-89
2023/08/06 08:21:39;;;;;;;0.10;0.10;;;;;;;;;;6187668;23;20020;-89
2023/08/06 08:24:05;;;;;;;0.10;0.10;;;;;;;;;;6188726;23;20044;-90
2023/08/06 08:26:31;;;;;;;0.10;0.10;;;;;;;;;;6188618;23;20027;-89
2023/08/06 08:28:58;;;;;;;0.10;0.10;;;;;;;;;;6214334;23;20402;-89
2023/08/06 08:31:24;;;;;;;0.10;0.10;;;;;;;;;;6187946;23;20514;-90
2023/08/06 08:33:50;;;;;;;0.17;0.17;;;;;;;;;;6187987;23;20450;-89
2023/08/06 08:36:16;;;;;;;0.10;0.10;;;;;;;;;;6187826;23;20051;-88
2023/08/06 08:38:42;;;;;;;0.10;0.10;;;;;;;;;;6188061;23;20020;-90
2023/08/06 08:41:11;;;;;;;0.10;0.10;;;;;;;;;;6187970;23;20051;-89
2023/08/06 08:43:37;;;;;;;0.20;0.20;;;;;;;;;;6189556;23;20016;-89
2023/08/06 08:46:04;;;;;;;0.00;0.00;;;;;;;;;;6189720;23;20028;-90
2023/08/06 08:48:30;;;;;;;0.20;0.20;;;;;;;;;;6189679;23;20021;-89
2023/08/06 08:50:56;;;;;;;0.10;0.10;;;;;;;;;;6189618;23;20016;-89
2023/08/06 08:53:22;;;;;;;0.10;0.10;;;;;;;;;;6189027;23;20019;-89
2023/08/06 08:55:49;;;;;;;0.10;0.10;;;;;;;;;;6189386;23;20020;-90
2023/08/06 08:58:15;;;;;;;0.10;0.10;;;;;;;;;;6189412;23;20471;-89
2023/08/06 09:00:48;;;;;;;0.15;0.15;;;;;;;;;;6192157;23;20020;-89
2023/08/06 09:03:18;;;;;;;0.10;0.10;;;;;;;;;;6242606;22;20024;-90
2023/08/06 09:05:48;;;;;;;0.20;0.20;;;;;;;;;;6213824;22;20347;-89
2023/08/06 09:08:38;;;;;;;0.20;0.20;;;;;;;;;;6269345;22;20023;-89
2023/08/06 09:13:50;;;;;;;0.20;0.20;;;;;;;;;;6215158;22;20057;-88
2023/08/06 09:16:20;;;;;;;0.10;0.10;;;;;;;;;;6250408;22;19996;-89
2023/08/06 09:19:03;;;;;;;0.10;0.10;;;;;;;;;;6247812;22;20046;-90
2023/08/06 09:21:59;;;;;;;0.10;0.10;;;;;;;;;;6213753;22;20076;-89
2023/08/06 09:24:26;;;;;;;0.20;0.20;;;;;;;;;;6305215;22;20463;-90
2023/08/06 09:26:52;;;;;;;0.00;0.00;;;;;;;;;;6200171;22;20027;-90
2023/08/06 09:29:19;;;;;;;0.17;0.17;;;;;;;;;;6200850;23;20040;-91
2023/08/06 09:31:46;;;;;;;0.10;0.10;;;;;;;;;;6202474;22;20017;-90
2023/08/06 09:34:40;;;;;;;0.17;0.17;;;;;;;;;;6187006;23;20032;-91
2023/08/06 09:37:11;;;;;;;0.13;0.13;;;;;;;;;;6214329;23;20025;-91
2023/08/06 10:05:43;;;;;;;0.10;0.10;;;;;;;;;;6236826;22;20048;-91
2023/08/06 10:16:05;;;;;;;0.13;0.13;;;;;;;;;;6208295;22;20027;-91
2023/08/06 10:18:44;;;;;;;0.10;0.10;;;;;;;;;;6229580;22;20015;-90
2023/08/06 10:21:13;;;;;;;0.13;0.13;;;;;;;;;;6185188;23;20012;-92
2023/08/06 10:23:43;;;;;;;0.10;0.10;;;;;;;;;;6189344;23;20004;-93
2023/08/06 10:26:15;;;;;;;0.10;0.10;;;;;;;;;;6187086;22;20020;-95
2023/08/06 10:28:43;;;;;;;0.10;0.10;;;;;;;;;;6185011;22;20024;-89
2023/08/06 10:31:15;;;;;;;0.15;0.15;;;;;;;;;;6210917;22;20027;-92
2023/08/06 10:33:43;;;;;;;0.10;0.10;;;;;;;;;;6207927;23;20015;-91
2023/08/06 10:36:12;;;;;;;0.22;0.22;;;;;;;;;;6213200;22;20035;-92
2023/08/06 10:38:48;;;;;;;0.03;0.03;;;;;;;;;;6186562;22;20020;-91
2023/08/06 10:41:31;;;;;;;0.20;0.20;;;;;;;;;;6164731;22;20428;-88
2023/08/06 10:44:10;;;;;;;0.10;0.10;;;;;;;;;;6189567;22;20009;-88
2023/08/06 10:46:51;;;;;;;0.10;0.10;;;;;;;;;;6164900;22;20008;-89
2023/08/06 10:49:26;;;;;;;0.10;0.10;;;;;;;;;;6177153;23;20017;-88
2023/08/06 10:51:57;;;;;;;0.32;0.32;;;;;;;;;;6342013;22;20016;-90
2023/08/06 10:54:23;;;;;;;0.15;0.15;;;;;;;;;;6212158;23;20003;-88
2023/08/06 10:57:11;;;;;;;0.10;0.10;;;;;;;;;;6206765;22;20005;-91
2023/08/06 10:59:46;;;;;;;0.00;0.00;;;;;;;;;;6190803;23;20021;-88
2023/08/06 11:02:27;;;;;;;0.05;0.05;;;;;;;;;;6214024;23;20033;-88
2023/08/06 11:05:18;;;;;;;0.10;0.10;;;;;;;;;;6201859;23;20019;-90
2023/08/06 11:07:57;;;;;;;0.10;0.10;;;;;;;;;;6210943;22;20020;-89
2023/08/06 11:10:28;;;;;;;0.10;0.10;;;;;;;;;;6210744;22;20022;-87
2023/08/06 11:13:35;;;;;;;0.10;0.10;;;;;;;;;;6247471;22;20003;-86
2023/08/06 11:16:05;;;;;;;0.20;0.20;;;;;;;;;;6211529;23;20063;-87
2023/08/06 11:18:44;;;;;;;0.10;0.10;;;;;;;;;;6212217;22;20013;-88
2023/08/06 11:21:11;;;;;;;0.20;0.20;;;;;;;;;;6213378;22;20004;-87
2023/08/06 11:23:41;;;;;;;0.13;0.13;;;;;;;;;;6234250;22;20046;-87
2023/08/06 11:26:22;;;;;;;0.10;0.10;;;;;;;;;;6212293;23;20024;-87
2023/08/06 11:28:54;;;;;;;0.10;0.10;;;;;;;;;;6234116;23;20338;-88
2023/08/06 11:31:25;;;;;;;0.10;0.10;;;;;;;;;;6204361;22;20024;-86
2023/08/06 11:34:06;;;;;;;0.20;0.20;;;;;;;;;;6212650;22;20032;-87
2023/08/06 11:36:33;;;;;;;0.08;0.08;;;;;;;;;;6210532;23;20021;-87
2023/08/06 11:39:07;;;;;;;0.08;0.08;;;;;;;;;;6187351;23;20038;-86
2023/08/06 11:41:51;;;;;;;0.00;0.00;;;;;;;;;;6213429;22;20040;-86
2023/08/06 11:44:22;;;;;;;0.13;0.13;;;;;;;;;;6163174;23;20021;-87
2023/08/06 11:47:01;;;;;;;0.08;0.08;;;;;;;;;;6212540;23;20020;-86
2023/08/06 11:49:41;;;;;;;0.00;0.00;;;;;;;;;;6228550;23;20021;-86
2023/08/06 11:52:26;;;;;;;0.10;0.10;;;;;;;;;;6184441;23;20031;-87
2023/08/06 11:54:52;;;;;;;;;;;;;;;;;;6185881;23;20072;-86
2023/08/06 11:57:26;;;;;;;0.10;0.10;;;;;;;;;;6186427;22;19945;-86
2023/08/06 11:59:52;;;;;;;0.10;0.10;;;;;;;;;;6184090;23;20065;-85
2023/08/06 12:02:23;;;;;;;0.00;0.00;;;;;;;;;;6180554;23;20068;-85
2023/08/06 12:05:04;;;;;;;0.10;0.10;;;;;;;;;;6182422;23;20036;-87
2023/08/06 12:07:34;;;;;;;0.17;0.17;;;;;;;;;;6184762;22;20005;-86
2023/08/06 12:10:22;;;;;;;0.20;0.20;;;;;;;;;;6184064;22;20041;-86
2023/08/06 12:12:51;;;;;;;0.10;0.10;;;;;;;;;;6216927;22;20033;-86
2023/08/06 12:15:22;;;;;;;0.10;0.10;;;;;;;;;;6212771;23;20004;-86
2023/08/06 12:17:48;;;;;;;0.10;0.10;;;;;;;;;;6188764;22;20054;-85
2023/08/06 12:20:28;;;;;;;0.10;0.10;;;;;;;;;;6239782;22;20013;-85
2023/08/06 12:28:09;;;;;;;0.08;0.08;;;;;;;;;;6237307;22;20029;-84
2023/08/06 12:30:41;;;;;;;0.10;0.10;;;;;;;;;;6238038;23;20005;-85
2023/08/06 12:33:13;;;;;;;0.10;0.10;;;;;;;;;;6316961;22;20023;-87
2023/08/06 12:35:40;;;;;;;0.10;0.10;;;;;;;;;;6213404;22;20052;-86
2023/08/06 12:38:10;;;;;;;0.10;0.10;;;;;;;;;;6239651;22;20021;-87
2023/08/06 12:40:39;;;;;;;0.05;0.05;;;;;;;;;;6238282;22;20031;-87
2023/08/06 12:43:06;;;;;;;0.10;0.10;;;;;;;;;;6230398;22;20005;-89
2023/08/06 12:45:40;;;;;;;0.10;0.10;;;;;;;;;;6238296;22;20004;-87
2023/08/06 12:53:22;;;;;;;0.10;0.10;;;;;;;;;;6219866;23;20035;-96
2023/08/06 12:55:48;;;;;;;0.10;0.10;;;;;;;;;;6193734;22;20052;-93
2023/08/06 13:24:12;;;;;;;0.20;0.20;;;;;;;;;;6222354;22;20035;-85
2023/08/06 13:27:00;;;;;;;0.00;0.00;;;;;;;;;;6304933;22;20051;-85
2023/08/06 13:29:37;;;;;;;0.10;0.10;;;;;;;;;;6236605;22;20012;-85
2023/08/06 13:32:10;;;;;;;0.10;0.10;;;;;;;;;;6240188;22;20015;-86
2023/08/06 13:34:55;;;;;;;0.10;0.10;;;;;;;;;;6222773;23;20013;-88
2023/08/06 13:37:21;;;;;;;0.30;0.30;;;;;;;;;;6211804;22;20017;-84
2023/08/06 13:39:50;;;;;;;0.10;0.10;;;;;;;;;;6237742;23;20061;-87
2023/08/06 13:42:17;;;;;;;0.00;0.00;;;;;;;;;;6212659;22;20032;-85
2023/08/06 13:44:43;;;;;;;0.10;0.10;;;;;;;;;;6198630;22;20021;-84
2023/08/06 13:47:14;;;;;;;0.10;0.10;;;;;;;;;;6202414;22;20100;-85
2023/08/06 13:49:46;;;;;;;0.10;0.10;;;;;;;;;;6200569;22;20021;-88
2023/08/06 13:52:15;;;;;;;0.10;0.10;;;;;;;;;;6212836;22;20004;-88
2023/08/06 13:54:42;;;;;;;0.10;0.10;;;;;;;;;;6205524;23;20011;-87
2023/08/06 13:57:08;;;;;;;0.10;0.10;;;;;;;;;;6209926;22;20052;-88
2023/08/06 13:59:52;;;;;;;0.10;0.10;;;;;;;;;;6236831;22;20021;-86
2023/08/06 14:02:18;;;;;;;0.10;0.10;;;;;;;;;;6174652;22;20005;-85
2023/08/06 14:04:51;;;;;;;0.00;0.00;;;;;;;;;;6237268;22;20001;-87
2023/08/06 14:07:26;;;;;;;0.03;0.03;;;;;;;;;;6234583;22;20013;-89
2023/08/06 14:09:52;;;;;;;0.10;0.10;;;;;;;;;;6208160;22;20435;-88
2023/08/06 14:12:21;;;;;;;0.00;0.00;;;;;;;;;;6197896;22;20016;-86
2023/08/06 14:14:47;;;;;;;0.20;0.20;;;;;;;;;;6198171;22;20017;-87
2023/08/06 14:17:14;;;;;;;0.00;0.00;;;;;;;;;;6188400;22;20043;-86
2023/08/06 14:20:11;;;;;;;0.20;0.20;;;;;;;;;;6186814;22;20425;-87
2023/08/06 14:22:37;;;;;;;0.10;0.10;;;;;;;;;;6208024;22;20021;-88
2023/08/06 14:25:10;;;;;;;0.10;0.10;;;;;;;;;;6229374;22;20012;-88
2023/08/06 14:27:38;;;;;;;0.20;0.20;;;;;;;;;;6263717;22;20339;-85
2023/08/06 14:30:05;;;;;;;0.30;0.30;;;;;;;;;;6183908;22;20023;-88
2023/08/06 14:32:31;;;;;;;0.05;0.05;;;;;;;;;;6183986;22;20013;-89
2023/08/06 14:35:02;;;;;;;0.00;0.00;;;;;;;;;;6184407;22;20016;-87
2023/08/06 14:37:28;;;;;;;0.05;0.05;;;;;;;;;;6183915;22;20065;-90
2023/08/06 14:39:54;;;;;;;0.20;0.20;;;;;;;;;;6184622;22;20023;-89
2023/08/06 14:42:26;;;;;;;0.10;0.10;;;;;;;;;;6184208;22;20032;-88
2023/08/06 14:44:52;;;;;;;0.10;0.10;;;;;;;;;;6184281;22;20020;-90
2023/08/06 14:47:18;;;;;;;0.10;0.10;;;;;;;;;;6184478;22;20524;-89
2023/08/06 14:49:44;;;;;;;0.20;0.20;;;;;;;;;;6184461;22;20031;-91
2023/08/06 14:52:10;;;;;;;0.10;0.10;;;;;;;;;;6184351;22;20020;-92
2023/08/06 14:54:36;;;;;;;0.10;0.10;;;;;;;;;;6183182;22;20435;-90
2023/08/06 14:57:03;;;;;;;0.20;0.20;;;;;;;;;;6183251;22;20017;-89
2023/08/06 14:59:29;;;;;;;0.15;0.15;;;;;;;;;;6184430;22;20454;-90
2023/08/06 15:01:55;;;;;;;0.20;0.20;;;;;;;;;;6183293;22;20088;-88
2023/08/06 15:04:23;;;;;;;0.03;0.03;;;;;;;;;;6183766;22;20016;-89
2023/08/06 15:06:52;;;;;;;0.05;0.05;;;;;;;;;;6183116;22;20085;-88
2023/08/06 15:09:20;;;;;;;0.15;0.15;;;;;;;;;;6184768;22;20113;-90
2023/08/06 15:11:46;;;;;;;0.10;0.10;;;;;;;;;;6184523;22;20024;-92
2023/08/06 15:14:12;;;;;;;0.10;0.10;;;;;;;;;;6185170;22;20058;-91
2023/08/06 15:16:38;;;;;;;0.00;0.00;;;;;;;;;;6186070;22;20024;-92
2023/08/06 15:19:04;;;;;;;0.10;0.10;;;;;;;;;;6185136;22;20020;-93
2023/08/06 15:21:30;;;;;;;0.10;0.10;;;;;;;;;;6184936;22;20123;-91
2023/08/06 15:23:56;;;;;;;0.20;0.20;;;;;;;;;;6183543;22;20447;-89
2023/08/06 15:26:22;;;;;;;0.08;0.08;;;;;;;;;;6186733;22;20025;-89
2023/08/06 15:28:48;;;;;;;0.00;0.00;;;;;;;;;;6188637;22;20025;-88
2023/08/06 15:31:15;;;;;;;0.10;0.10;;;;;;;;;;6189426;22;20016;-88
2023/08/06 15:33:41;;;;;;;0.10;0.10;;;;;;;;;;6190305;23;20104;-89
2023/08/06 15:36:07;;;;;;;0.10;0.10;;;;;;;;;;6192729;22;20040;-90
2023/08/06 15:38:33;;;;;;;0.10;0.10;;;;;;;;;;6193693;22;20013;-89
2023/08/06 15:40:59;;;;;;;0.10;0.10;;;;;;;;;;6195189;22;20023;-90
2023/08/06 15:43:25;;;;;;;0.05;0.05;;;;;;;;;;6193845;22;20012;-87
2023/08/06 15:45:51;;;;;;;0.10;0.10;;;;;;;;;;6195131;22;20060;-88
2023/08/06 15:48:17;;;;;;;0.10;0.10;;;;;;;;;;6194128;22;20369;-87
2023/08/06 15:50:43;;;;;;;0.10;0.10;;;;;;;;;;6193019;22;20069;-89
2023/08/06 15:53:12;;;;;;;0.10;0.10;;;;;;;;;;6195903;22;20020;-88
2023/08/06 15:58:58;;;;;;;0.00;0.00;;;;;;;;;;6237282;23;20027;-88
2023/08/06 16:01:24;;;;;;;0.10;0.10;;;;;;;;;;6200405;23;20016;-87
2023/08/06 16:03:50;;;;;;;0.20;0.20;;;;;;;;;;6202705;22;20020;-84
2023/08/06 16:06:17;;;;;;;0.10;0.10;;;;;;;;;;6199917;22;20021;-90